sensor_id;sensor_type;location;lat;lon;timestamp;P1;durP1;ratioP1;P2;durP2;ratioP2
12271;SDS011;6198;51.446;6.698;2023-08-06T00:02:14;14.60;;;9.10;;
12271;SDS011;6198;51.446;6.698;2023-08-06T00:04:40;13.50;;;6.90;;
12271;SDS011;6198;51.446;6.698;2023-08-06T00:07:06;17.17;;;8.67;;
12271;SDS011;6198;51.446;6.698;2023-08-06T00:09:32;11.43;;;7.97;;
12271;SDS011;6198;51.446;6.698;2023-08-06T00:11:58;14.33;;;8.57;;
12271;SDS011;6198;51.446;6.698;2023-08-06T00:14:24;9.87;;;7.93;;
12271;SDS011;6198;51.446;6.698;2023-08-06T00:16:50;10.07;;;6.13;;
12271;SDS011;6198;51.446;6.698;2023-08-06T00:19:16;9.17;;;5.60;;
12271;SDS011;6198;51.446;6.698;2023-08-06T00:21:42;9.20;;;5.80;;
12271;SDS011;6198;51.446;6.698;2023-08-06T00:24:08;11.97;;;7.00;;
12271;SDS011;6198;51.446;6.698;2023-08-06T00:26:34;8.77;;;6.83;;
12271;SDS011;6198;51.446;6.698;2023-08-06T00:29:00;10.60;;;6.63;;
12271;SDS011;6198;51.446;6.698;2023-08-06T00:31:26;17.37;;;7.10;;
12271;SDS011;6198;51.446;6.698;2023-08-06T00:33:52;10.90;;;6.17;;
12271;SDS011;6198;51.446;6.698;2023-08-06T00:36:18;8.60;;;6.30;;
12271;SDS011;6198;51.446;6.698;2023-08-06T00:38:44;12.87;;;6.87;;
12271;SDS011;6198;51.446;6.698;2023-08-06T00:41:09;9.47;;;6.00;;
12271;SDS011;6198;51.446;6.698;2023-08-06T00:43:35;10.40;;;6.50;;
12271;SDS011;6198;51.446;6.698;2023-08-06T00:46:01;9.53;;;6.37;;
12271;SDS011;6198;51.446;6.698;2023-08-06T00:48:28;9.33;;;6.07;;
12271;SDS011;6198;51.446;6.698;2023-08-06T00:50:54;11.70;;;5.93;;
12271;SDS011;6198;51.446;6.698;2023-08-06T00:53:20;10.70;;;6.10;;
12271;SDS011;6198;51.446;6.698;2023-08-06T00:55:45;9.97;;;6.00;;
12271;SDS011;6198;51.446;6.698;2023-08-06T00:58:12;9.63;;;5.80;;
12271;SDS011;6198;51.446;6.698;2023-08-06T01:00:39;10.50;;;6.07;;
12271;SDS011;6198;51.446;6.698;2023-08-06T01:03:05;9.37;;;5.77;;
12271;SDS011;6198;51.446;6.698;2023-08-06T01:05:32;10.43;;;5.33;;
12271;SDS011;6198;51.446;6.698;2023-08-06T01:16:23;11.13;;;5.87;;
12271;SDS011;6198;51.446;6.698;2023-08-06T01:18:49;12.33;;;6.10;;
12271;SDS011;6198;51.446;6.698;2023-08-06T01:21:16;10.40;;;6.60;;
12271;SDS011;6198;51.446;6.698;2023-08-06T01:23:42;12.23;;;6.40;;
12271;SDS011;6198;51.446;6.698;2023-08-06T01:28:47;8.93;;;5.40;;
12271;SDS011;6198;51.446;6.698;2023-08-06T01:31:18;5.63;;;4.20;;
12271;SDS011;6198;51.446;6.698;2023-08-06T01:33:47;7.37;;;5.13;;
12271;SDS011;6198;51.446;6.698;2023-08-06T01:36:18;9.93;;;4.43;;
12271;SDS011;6198;51.446;6.698;2023-08-06T01:38:44;6.43;;;4.87;;
12271;SDS011;6198;51.446;6.698;2023-08-06T01:41:10;10.67;;;5.30;;
12271;SDS011;6198;51.446;6.698;2023-08-06T01:43:36;10.67;;;5.93;;
12271;SDS011;6198;51.446;6.698;2023-08-06T01:46:02;9.00;;;6.20;;
12271;SDS011;6198;51.446;6.698;2023-08-06T01:48:28;9.27;;;5.70;;
12271;SDS011;6198;51.446;6.698;2023-08-06T01:50:54;12.37;;;6.53;;
12271;SDS011;6198;51.446;6.698;2023-08-06T01:53:20;25.50;;;13.10;;
12271;SDS011;6198;51.446;6.698;2023-08-06T01:55:49;19.57;;;10.83;;
12271;SDS011;6198;51.446;6.698;2023-08-06T01:58:15;19.87;;;11.30;;
12271;SDS011;6198;51.446;6.698;2023-08-06T02:00:41;12.83;;;8.67;;
12271;SDS011;6198;51.446;6.698;2023-08-06T02:03:07;16.43;;;10.47;;
12271;SDS011;6198;51.446;6.698;2023-08-06T02:05:33;15.60;;;7.97;;
12271;SDS011;6198;51.446;6.698;2023-08-06T02:07:59;13.70;;;8.33;;
12271;SDS011;6198;51.446;6.698;2023-08-06T02:10:25;13.83;;;7.97;;
12271;SDS011;6198;51.446;6.698;2023-08-06T02:12:51;9.77;;;7.17;;
12271;SDS011;6198;51.446;6.698;2023-08-06T02:15:16;10.30;;;6.27;;
12271;SDS011;6198;51.446;6.698;2023-08-06T02:17:42;9.77;;;6.00;;
12271;SDS011;6198;51.446;6.698;2023-08-06T02:20:08;7.30;;;5.50;;
12271;SDS011;6198;51.446;6.698;2023-08-06T02:22:34;11.70;;;7.93;;
12271;SDS011;6198;51.446;6.698;2023-08-06T02:25:00;11.60;;;7.57;;
12271;SDS011;6198;51.446;6.698;2023-08-06T02:27:26;12.53;;;6.97;;
12271;SDS011;6198;51.446;6.698;2023-08-06T02:29:52;10.87;;;7.37;;
12271;SDS011;6198;51.446;6.698;2023-08-06T02:32:18;20.33;;;9.70;;
12271;SDS011;6198;51.446;6.698;2023-08-06T02:34:44;19.03;;;10.07;;
12271;SDS011;6198;51.446;6.698;2023-08-06T02:37:10;17.50;;;8.27;;
12271;SDS011;6198;51.446;6.698;2023-08-06T02:39:36;15.43;;;8.00;;
12271;SDS011;6198;51.446;6.698;2023-08-06T02:42:05;11.00;;;7.30;;
12271;SDS011;6198;51.446;6.698;2023-08-06T02:44:31;18.40;;;9.43;;
12271;SDS011;6198;51.446;6.698;2023-08-06T02:46:58;21.20;;;9.47;;
12271;SDS011;6198;51.446;6.698;2023-08-06T02:49:24;23.80;;;10.33;;
12271;SDS011;6198;51.446;6.698;2023-08-06T02:51:50;28.53;;;12.50;;
12271;SDS011;6198;51.446;6.698;2023-08-06T02:54:17;22.07;;;10.37;;
12271;SDS011;6198;51.446;6.698;2023-08-06T02:56:43;23.83;;;10.80;;
12271;SDS011;6198;51.446;6.698;2023-08-06T02:59:10;16.23;;;8.40;;
12271;SDS011;6198;51.446;6.698;2023-08-06T03:01:36;14.87;;;7.43;;
12271;SDS011;6198;51.446;6.698;2023-08-06T03:04:02;9.50;;;6.67;;
12271;SDS011;6198;51.446;6.698;2023-08-06T03:06:28;11.47;;;6.40;;
12271;SDS011;6198;51.446;6.698;2023-08-06T03:08:54;7.23;;;6.50;;
12271;SDS011;6198;51.446;6.698;2023-08-06T03:11:20;8.17;;;6.23;;
12271;SDS011;6198;51.446;6.698;2023-08-06T03:13:47;10.67;;;6.47;;
12271;SDS011;6198;51.446;6.698;2023-08-06T03:16:13;8.33;;;5.80;;
12271;SDS011;6198;51.446;6.698;2023-08-06T03:18:39;9.63;;;6.57;;
12271;SDS011;6198;51.446;6.698;2023-08-06T03:21:05;9.60;;;6.40;;
12271;SDS011;6198;51.446;6.698;2023-08-06T03:23:31;10.50;;;7.13;;
12271;SDS011;6198;51.446;6.698;2023-08-06T03:26:00;10.67;;;7.07;;
12271;SDS011;6198;51.446;6.698;2023-08-06T03:28:27;18.40;;;10.53;;
12271;SDS011;6198;51.446;6.698;2023-08-06T03:31:02;17.03;;;10.10;;
12271;SDS011;6198;51.446;6.698;2023-08-06T03:33:28;19.57;;;10.67;;
12271;SDS011;6198;51.446;6.698;2023-08-06T03:35:54;18.07;;;10.63;;
12271;SDS011;6198;51.446;6.698;2023-08-06T03:38:21;25.90;;;11.10;;
12271;SDS011;6198;51.446;6.698;2023-08-06T03:40:47;19.63;;;10.57;;
12271;SDS011;6198;51.446;6.698;2023-08-06T03:43:13;30.37;;;16.23;;
12271;SDS011;6198;51.446;6.698;2023-08-06T03:45:42;24.53;;;14.17;;
12271;SDS011;6198;51.446;6.698;2023-08-06T03:48:08;31.30;;;14.50;;
12271;SDS011;6198;51.446;6.698;2023-08-06T03:50:34;33.40;;;19.10;;
12271;SDS011;6198;51.446;6.698;2023-08-06T03:53:01;29.10;;;16.80;;
12271;SDS011;6198;51.446;6.698;2023-08-06T03:55:27;26.83;;;15.97;;
12271;SDS011;6198;51.446;6.698;2023-08-06T03:57:52;26.43;;;15.10;;
12271;SDS011;6198;51.446;6.698;2023-08-06T04:00:18;29.97;;;18.27;;
12271;SDS011;6198;51.446;6.698;2023-08-06T04:02:44;31.07;;;17.10;;
12271;SDS011;6198;51.446;6.698;2023-08-06T04:05:10;25.03;;;12.80;;
12271;SDS011;6198;51.446;6.698;2023-08-06T04:07:36;27.97;;;14.13;;
12271;SDS011;6198;51.446;6.698;2023-08-06T04:10:03;40.90;;;16.03;;
12271;SDS011;6198;51.446;6.698;2023-08-06T04:12:30;33.63;;;14.50;;
12271;SDS011;6198;51.446;6.698;2023-08-06T04:14:57;27.43;;;13.67;;
12271;SDS011;6198;51.446;6.698;2023-08-06T04:17:24;26.50;;;12.27;;
12271;SDS011;6198;51.446;6.698;2023-08-06T04:19:51;19.63;;;9.10;;
12271;SDS011;6198;51.446;6.698;2023-08-06T04:22:17;16.27;;;8.43;;
12271;SDS011;6198;51.446;6.698;2023-08-06T04:24:43;17.27;;;8.40;;
12271;SDS011;6198;51.446;6.698;2023-08-06T04:27:10;15.40;;;7.70;;
12271;SDS011;6198;51.446;6.698;2023-08-06T04:29:36;18.57;;;7.20;;
12271;SDS011;6198;51.446;6.698;2023-08-06T04:32:03;11.77;;;6.53;;
12271;SDS011;6198;51.446;6.698;2023-08-06T04:34:29;10.00;;;5.97;;
12271;SDS011;6198;51.446;6.698;2023-08-06T04:36:55;11.63;;;6.13;;
12271;SDS011;6198;51.446;6.698;2023-08-06T04:39:21;7.57;;;5.97;;
12271;SDS011;6198;51.446;6.698;2023-08-06T04:41:47;8.30;;;6.20;;
12271;SDS011;6198;51.446;6.698;2023-08-06T04:44:13;12.87;;;6.40;;
12271;SDS011;6198;51.446;6.698;2023-08-06T04:46:39;12.40;;;6.27;;
12271;SDS011;6198;51.446;6.698;2023-08-06T04:49:05;8.10;;;5.40;;
12271;SDS011;6198;51.446;6.698;2023-08-06T04:51:31;9.27;;;5.97;;
12271;SDS011;6198;51.446;6.698;2023-08-06T04:53:57;9.33;;;5.53;;
12271;SDS011;6198;51.446;6.698;2023-08-06T04:56:23;8.03;;;5.60;;
12271;SDS011;6198;51.446;6.698;2023-08-06T04:58:49;11.37;;;6.57;;
12271;SDS011;6198;51.446;6.698;2023-08-06T05:01:15;9.60;;;6.70;;
12271;SDS011;6198;51.446;6.698;2023-08-06T05:03:42;10.23;;;6.37;;
12271;SDS011;6198;51.446;6.698;2023-08-06T05:06:08;10.17;;;5.87;;
12271;SDS011;6198;51.446;6.698;2023-08-06T05:08:34;7.47;;;5.73;;
12271;SDS011;6198;51.446;6.698;2023-08-06T05:11:00;9.67;;;5.37;;
12271;SDS011;6198;51.446;6.698;2023-08-06T05:13:26;8.43;;;5.90;;
12271;SDS011;6198;51.446;6.698;2023-08-06T05:15:55;11.10;;;6.13;;
12271;SDS011;6198;51.446;6.698;2023-08-06T05:18:21;10.33;;;6.50;;
12271;SDS011;6198;51.446;6.698;2023-08-06T05:20:47;19.40;;;10.73;;
12271;SDS011;6198;51.446;6.698;2023-08-06T05:23:13;14.37;;;9.33;;
12271;SDS011;6198;51.446;6.698;2023-08-06T05:25:39;15.67;;;10.83;;
12271;SDS011;6198;51.446;6.698;2023-08-06T05:28:06;15.37;;;7.73;;
12271;SDS011;6198;51.446;6.698;2023-08-06T05:30:32;20.20;;;11.20;;
12271;SDS011;6198;51.446;6.698;2023-08-06T05:32:57;13.37;;;7.33;;
12271;SDS011;6198;51.446;6.698;2023-08-06T05:35:23;6.87;;;4.73;;
12271;SDS011;6198;51.446;6.698;2023-08-06T05:37:49;6.87;;;4.83;;
12271;SDS011;6198;51.446;6.698;2023-08-06T05:40:16;6.53;;;4.03;;
12271;SDS011;6198;51.446;6.698;2023-08-06T05:42:42;5.87;;;3.53;;
12271;SDS011;6198;51.446;6.698;2023-08-06T05:45:08;5.13;;;3.73;;
12271;SDS011;6198;51.446;6.698;2023-08-06T05:47:34;7.80;;;3.60;;
12271;SDS011;6198;51.446;6.698;2023-08-06T05:50:00;6.17;;;3.73;;
12271;SDS011;6198;51.446;6.698;2023-08-06T05:52:26;8.70;;;3.77;;
12271;SDS011;6198;51.446;6.698;2023-08-06T05:54:52;4.40;;;3.80;;
12271;SDS011;6198;51.446;6.698;2023-08-06T05:57:20;5.87;;;3.77;;
12271;SDS011;6198;51.446;6.698;2023-08-06T05:59:46;11.93;;;4.20;;
12271;SDS011;6198;51.446;6.698;2023-08-06T06:02:11;7.53;;;4.63;;
12271;SDS011;6198;51.446;6.698;2023-08-06T06:04:37;8.40;;;4.90;;
12271;SDS011;6198;51.446;6.698;2023-08-06T06:07:03;4.13;;;3.53;;
12271;SDS011;6198;51.446;6.698;2023-08-06T06:09:29;6.57;;;3.90;;
12271;SDS011;6198;51.446;6.698;2023-08-06T06:11:55;6.90;;;3.80;;
12271;SDS011;6198;51.446;6.698;2023-08-06T06:14:21;6.33;;;3.23;;
12271;SDS011;6198;51.446;6.698;2023-08-06T06:16:47;4.03;;;3.63;;
12271;SDS011;6198;51.446;6.698;2023-08-06T06:19:13;5.87;;;3.63;;
12271;SDS011;6198;51.446;6.698;2023-08-06T06:21:39;4.43;;;3.53;;
12271;SDS011;6198;51.446;6.698;2023-08-06T06:24:05;9.73;;;6.00;;
12271;SDS011;6198;51.446;6.698;2023-08-06T06:26:33;4.77;;;4.17;;
12271;SDS011;6198;51.446;6.698;2023-08-06T06:28:58;8.20;;;4.30;;
12271;SDS011;6198;51.446;6.698;2023-08-06T06:31:24;6.87;;;4.83;;
12271;SDS011;6198;51.446;6.698;2023-08-06T06:33:50;7.83;;;5.10;;
12271;SDS011;6198;51.446;6.698;2023-08-06T06:36:19;7.77;;;4.40;;
12271;SDS011;6198;51.446;6.698;2023-08-06T06:38:45;6.67;;;4.77;;
12271;SDS011;6198;51.446;6.698;2023-08-06T06:41:11;6.23;;;4.83;;
12271;SDS011;6198;51.446;6.698;2023-08-06T06:43:37;7.20;;;6.17;;
12271;SDS011;6198;51.446;6.698;2023-08-06T06:46:04;13.67;;;8.33;;
12271;SDS011;6198;51.446;6.698;2023-08-06T06:48:32;17.43;;;9.40;;
12271;SDS011;6198;51.446;6.698;2023-08-06T06:50:59;12.93;;;8.17;;
12271;SDS011;6198;51.446;6.698;2023-08-06T06:53:25;10.93;;;7.83;;
12271;SDS011;6198;51.446;6.698;2023-08-06T06:55:54;10.90;;;6.53;;
12271;SDS011;6198;51.446;6.698;2023-08-06T06:58:20;8.67;;;5.47;;
12271;SDS011;6198;51.446;6.698;2023-08-06T07:00:46;10.70;;;7.50;;
12271;SDS011;6198;51.446;6.698;2023-08-06T07:03:13;11.93;;;7.70;;
12271;SDS011;6198;51.446;6.698;2023-08-06T07:05:39;9.97;;;7.23;;
12271;SDS011;6198;51.446;6.698;2023-08-06T07:08:05;7.87;;;6.60;;
12271;SDS011;6198;51.446;6.698;2023-08-06T07:10:31;8.00;;;5.93;;
12271;SDS011;6198;51.446;6.698;2023-08-06T07:12:57;8.13;;;5.93;;
12271;SDS011;6198;51.446;6.698;2023-08-06T07:15:23;8.90;;;7.47;;
12271;SDS011;6198;51.446;6.698;2023-08-06T07:17:48;9.13;;;7.73;;
12271;SDS011;6198;51.446;6.698;2023-08-06T07:20:14;8.60;;;7.73;;
12271;SDS011;6198;51.446;6.698;2023-08-06T07:22:40;9.93;;;8.87;;
12271;SDS011;6198;51.446;6.698;2023-08-06T07:25:06;10.30;;;8.57;;
12271;SDS011;6198;51.446;6.698;2023-08-06T07:27:32;11.40;;;9.10;;
12271;SDS011;6198;51.446;6.698;2023-08-06T07:29:58;8.53;;;7.73;;
12271;SDS011;6198;51.446;6.698;2023-08-06T07:32:24;10.03;;;7.27;;
12271;SDS011;6198;51.446;6.698;2023-08-06T07:34:50;8.07;;;6.67;;
12271;SDS011;6198;51.446;6.698;2023-08-06T07:37:24;7.57;;;5.87;;
12271;SDS011;6198;51.446;6.698;2023-08-06T07:39:50;6.40;;;5.33;;
12271;SDS011;6198;51.446;6.698;2023-08-06T07:42:16;7.60;;;5.37;;
12271;SDS011;6198;51.446;6.698;2023-08-06T07:44:45;9.23;;;5.17;;
12271;SDS011;6198;51.446;6.698;2023-08-06T07:47:15;5.40;;;4.60;;
12271;SDS011;6198;51.446;6.698;2023-08-06T07:49:41;6.07;;;4.50;;
12271;SDS011;6198;51.446;6.698;2023-08-06T07:52:07;6.00;;;4.97;;
12271;SDS011;6198;51.446;6.698;2023-08-06T07:54:33;9.50;;;4.50;;
12271;SDS011;6198;51.446;6.698;2023-08-06T07:56:59;6.27;;;4.67;;
12271;SDS011;6198;51.446;6.698;2023-08-06T07:59:25;5.30;;;4.40;;
12271;SDS011;6198;51.446;6.698;2023-08-06T08:01:51;5.90;;;4.67;;
12271;SDS011;6198;51.446;6.698;2023-08-06T08:04:17;10.00;;;4.20;;
12271;SDS011;6198;51.446;6.698;2023-08-06T08:06:43;6.03;;;4.33;;
12271;SDS011;6198;51.446;6.698;2023-08-06T08:09:09;6.17;;;3.73;;
12271;SDS011;6198;51.446;6.698;2023-08-06T08:11:35;6.93;;;4.37;;
12271;SDS011;6198;51.446;6.698;2023-08-06T08:14:01;5.00;;;3.87;;
12271;SDS011;6198;51.446;6.698;2023-08-06T08:16:27;7.37;;;4.20;;
12271;SDS011;6198;51.446;6.698;2023-08-06T08:18:53;5.87;;;3.63;;
12271;SDS011;6198;51.446;6.698;2023-08-06T08:21:19;8.80;;;3.77;;
12271;SDS011;6198;51.446;6.698;2023-08-06T08:23:45;5.67;;;3.67;;
12271;SDS011;6198;51.446;6.698;2023-08-06T08:26:11;5.23;;;3.10;;
12271;SDS011;6198;51.446;6.698;2023-08-06T08:28:37;4.70;;;3.40;;
12271;SDS011;6198;51.446;6.698;2023-08-06T08:31:03;6.53;;;2.90;;
12271;SDS011;6198;51.446;6.698;2023-08-06T08:33:29;3.17;;;2.83;;
12271;SDS011;6198;51.446;6.698;2023-08-06T08:35:55;7.67;;;3.33;;
12271;SDS011;6198;51.446;6.698;2023-08-06T08:38:21;4.83;;;3.00;;
12271;SDS011;6198;51.446;6.698;2023-08-06T08:40:47;4.63;;;3.70;;
12271;SDS011;6198;51.446;6.698;2023-08-06T08:43:16;8.43;;;2.77;;
12271;SDS011;6198;51.446;6.698;2023-08-06T08:45:43;6.50;;;3.13;;
12271;SDS011;6198;51.446;6.698;2023-08-06T08:48:12;4.10;;;3.03;;
12271;SDS011;6198;51.446;6.698;2023-08-06T08:50:39;3.80;;;2.80;;
12271;SDS011;6198;51.446;6.698;2023-08-06T08:53:05;4.97;;;2.37;;
12271;SDS011;6198;51.446;6.698;2023-08-06T08:55:31;4.40;;;2.70;;
12271;SDS011;6198;51.446;6.698;2023-08-06T08:57:57;3.20;;;1.97;;
12271;SDS011;6198;51.446;6.698;2023-08-06T09:00:23;3.30;;;2.33;;
12271;SDS011;6198;51.446;6.698;2023-08-06T09:02:50;4.00;;;2.17;;
12271;SDS011;6198;51.446;6.698;2023-08-06T09:05:17;5.33;;;2.50;;
12271;SDS011;6198;51.446;6.698;2023-08-06T09:07:46;5.00;;;2.47;;
12271;SDS011;6198;51.446;6.698;2023-08-06T09:10:14;4.03;;;2.30;;
12271;SDS011;6198;51.446;6.698;2023-08-06T09:12:42;4.07;;;2.60;;
12271;SDS011;6198;51.446;6.698;2023-08-06T09:15:09;5.10;;;2.63;;
12271;SDS011;6198;51.446;6.698;2023-08-06T09:17:36;7.40;;;3.13;;
12271;SDS011;6198;51.446;6.698;2023-08-06T09:20:08;6.87;;;2.63;;
12271;SDS011;6198;51.446;6.698;2023-08-06T09:22:34;3.80;;;2.90;;
12271;SDS011;6198;51.446;6.698;2023-08-06T09:25:00;3.67;;;2.70;;
12271;SDS011;6198;51.446;6.698;2023-08-06T09:27:28;3.80;;;2.60;;
12271;SDS011;6198;51.446;6.698;2023-08-06T09:29:54;3.93;;;2.73;;
12271;SDS011;6198;51.446;6.698;2023-08-06T09:32:20;6.10;;;3.03;;
12271;SDS011;6198;51.446;6.698;2023-08-06T09:34:46;6.73;;;3.33;;
12271;SDS011;6198;51.446;6.698;2023-08-06T09:37:12;5.53;;;3.30;;
12271;SDS011;6198;51.446;6.698;2023-08-06T09:39:39;5.20;;;3.30;;
12271;SDS011;6198;51.446;6.698;2023-08-06T09:42:07;5.87;;;3.50;;
12271;SDS011;6198;51.446;6.698;2023-08-06T09:44:34;6.07;;;3.33;;
12271;SDS011;6198;51.446;6.698;2023-08-06T09:47:03;5.77;;;3.93;;
12271;SDS011;6198;51.446;6.698;2023-08-06T09:49:50;6.63;;;3.43;;
12271;SDS011;6198;51.446;6.698;2023-08-06T09:52:16;7.87;;;4.53;;
12271;SDS011;6198;51.446;6.698;2023-08-06T09:54:43;8.83;;;4.73;;
12271;SDS011;6198;51.446;6.698;2023-08-06T09:57:09;8.93;;;5.77;;
12271;SDS011;6198;51.446;6.698;2023-08-06T09:59:37;8.17;;;5.80;;
12271;SDS011;6198;51.446;6.698;2023-08-06T10:02:06;9.03;;;6.50;;
12271;SDS011;6198;51.446;6.698;2023-08-06T10:04:36;6.37;;;5.77;;
12271;SDS011;6198;51.446;6.698;2023-08-06T10:07:02;9.27;;;6.23;;
12271;SDS011;6198;51.446;6.698;2023-08-06T10:09:28;10.27;;;6.23;;
12271;SDS011;6198;51.446;6.698;2023-08-06T10:11:55;7.87;;;5.83;;
12271;SDS011;6198;51.446;6.698;2023-08-06T10:14:24;7.27;;;6.10;;
12271;SDS011;6198;51.446;6.698;2023-08-06T10:16:51;9.93;;;6.90;;
12271;SDS011;6198;51.446;6.698;2023-08-06T10:19:17;9.77;;;7.60;;
12271;SDS011;6198;51.446;6.698;2023-08-06T10:24:28;8.53;;;7.03;;
12271;SDS011;6198;51.446;6.698;2023-08-06T10:27:10;7.93;;;7.27;;
12271;SDS011;6198;51.446;6.698;2023-08-06T10:29:36;6.80;;;6.30;;
12271;SDS011;6198;51.446;6.698;2023-08-06T10:32:03;6.87;;;5.90;;
12271;SDS011;6198;51.446;6.698;2023-08-06T10:37:16;3.93;;;3.53;;
12271;SDS011;6198;51.446;6.698;2023-08-06T10:39:48;4.23;;;3.47;;
12271;SDS011;6198;51.446;6.698;2023-08-06T10:42:19;3.93;;;2.93;;
12271;SDS011;6198;51.446;6.698;2023-08-06T10:47:30;15.43;;;12.97;;
12271;SDS011;6198;51.446;6.698;2023-08-06T10:50:04;47.70;;;37.20;;
12271;SDS011;6198;51.446;6.698;2023-08-06T10:52:30;45.33;;;25.97;;
12271;SDS011;6198;51.446;6.698;2023-08-06T10:54:56;89.53;;;50.77;;
12271;SDS011;6198;51.446;6.698;2023-08-06T10:57:22;29.52;;;24.15;;
12271;SDS011;6198;51.446;6.698;2023-08-06T10:59:49;7.53;;;6.82;;
12271;SDS011;6198;51.446;6.698;2023-08-06T11:02:16;17.13;;;15.48;;
12271;SDS011;6198;51.446;6.698;2023-08-06T11:04:42;5.07;;;3.95;;
12271;SDS011;6198;51.446;6.698;2023-08-06T11:07:08;5.88;;;5.38;;
12271;SDS011;6198;51.446;6.698;2023-08-06T11:09:34;2.43;;;2.00;;
12271;SDS011;6198;51.446;6.698;2023-08-06T11:12:00;2.27;;;2.00;;
12271;SDS011;6198;51.446;6.698;2023-08-06T11:14:26;2.63;;;2.43;;
12271;SDS011;6198;51.446;6.698;2023-08-06T11:16:52;2.37;;;2.20;;
12271;SDS011;6198;51.446;6.698;2023-08-06T11:19:19;3.60;;;2.37;;
12271;SDS011;6198;51.446;6.698;2023-08-06T11:21:45;4.53;;;2.70;;
12271;SDS011;6198;51.446;6.698;2023-08-06T11:24:12;4.27;;;2.87;;
12271;SDS011;6198;51.446;6.698;2023-08-06T11:26:38;2.88;;;2.67;;
12271;SDS011;6198;51.446;6.698;2023-08-06T11:29:05;3.78;;;3.38;;
12271;SDS011;6198;51.446;6.698;2023-08-06T11:31:31;2.70;;;2.50;;
12271;SDS011;6198;51.446;6.698;2023-08-06T11:33:57;2.95;;;2.75;;
12271;SDS011;6198;51.446;6.698;2023-08-06T11:38:55;2.50;;;2.30;;
12271;SDS011;6198;51.446;6.698;2023-08-06T11:41:21;2.78;;;2.58;;
12271;SDS011;6198;51.446;6.698;2023-08-06T11:43:47;2.50;;;2.30;;
12271;SDS011;6198;51.446;6.698;2023-08-06T11:46:13;2.85;;;2.50;;
12271;SDS011;6198;51.446;6.698;2023-08-06T11:48:55;2.00;;;1.90;;
12271;SDS011;6198;51.446;6.698;2023-08-06T11:51:25;2.25;;;2.05;;
12271;SDS011;6198;51.446;6.698;2023-08-06T11:53:55;3.00;;;2.53;;
12271;SDS011;6198;51.446;6.698;2023-08-06T11:56:21;2.78;;;2.58;;
12271;SDS011;6198;51.446;6.698;2023-08-06T11:58:47;2.45;;;2.25;;
12271;SDS011;6198;51.446;6.698;2023-08-06T12:01:13;2.20;;;1.83;;
12271;SDS011;6198;51.446;6.698;2023-08-06T12:03:40;1.98;;;1.60;;
12271;SDS011;6198;51.446;6.698;2023-08-06T12:06:06;1.60;;;1.50;;
12271;SDS011;6198;51.446;6.698;2023-08-06T12:08:32;2.13;;;1.90;;
12271;SDS011;6198;51.446;6.698;2023-08-06T12:10:58;2.42;;;2.10;;
12271;SDS011;6198;51.446;6.698;2023-08-06T12:13:24;2.10;;;2.00;;
12271;SDS011;6198;51.446;6.698;2023-08-06T12:15:50;2.10;;;1.90;;
12271;SDS011;6198;51.446;6.698;2023-08-06T12:18:18;1.88;;;1.70;;
12271;SDS011;6198;51.446;6.698;2023-08-06T12:20:44;2.03;;;1.85;;
12271;SDS011;6198;51.446;6.698;2023-08-06T12:23:10;1.80;;;1.70;;
12271;SDS011;6198;51.446;6.698;2023-08-06T12:25:40;1.95;;;1.75;;
12271;SDS011;6198;51.446;6.698;2023-08-06T12:28:06;3.67;;;3.28;;
12271;SDS011;6198;51.446;6.698;2023-08-06T12:30:33;7.32;;;6.28;;
12271;SDS011;6198;51.446;6.698;2023-08-06T12:32:59;3.50;;;3.10;;
12271;SDS011;6198;51.446;6.698;2023-08-06T12:35:25;3.78;;;3.47;;
12271;SDS011;6198;51.446;6.698;2023-08-06T12:37:51;3.25;;;2.92;;
12271;SDS011;6198;51.446;6.698;2023-08-06T12:40:19;4.57;;;4.23;;
12271;SDS011;6198;51.446;6.698;2023-08-06T12:42:45;3.97;;;3.67;;
12271;SDS011;6198;51.446;6.698;2023-08-06T12:45:11;2.70;;;2.50;;
12271;SDS011;6198;51.446;6.698;2023-08-06T12:47:37;3.53;;;3.22;;
12271;SDS011;6198;51.446;6.698;2023-08-06T12:50:03;4.88;;;3.00;;
12271;SDS011;6198;51.446;6.698;2023-08-06T12:52:29;4.18;;;3.13;;
12271;SDS011;6198;51.446;6.698;2023-08-06T12:54:55;3.80;;;3.45;;
12271;SDS011;6198;51.446;6.698;2023-08-06T12:57:21;4.22;;;3.83;;
12271;SDS011;6198;51.446;6.698;2023-08-06T12:59:47;3.63;;;3.23;;
12271;SDS011;6198;51.446;6.698;2023-08-06T13:02:13;4.97;;;3.73;;
12271;SDS011;6198;51.446;6.698;2023-08-06T13:04:39;4.17;;;3.70;;
12271;SDS011;6198;51.446;6.698;2023-08-06T13:07:05;5.60;;;4.00;;
12271;SDS011;6198;51.446;6.698;2023-08-06T13:09:31;5.83;;;4.03;;
12271;SDS011;6198;51.446;6.698;2023-08-06T13:11:57;4.63;;;4.13;;
12271;SDS011;6198;51.446;6.698;2023-08-06T13:14:24;4.60;;;3.93;;
12271;SDS011;6198;51.446;6.698;2023-08-06T13:16:51;5.20;;;4.23;;
12271;SDS011;6198;51.446;6.698;2023-08-06T13:19:17;4.87;;;4.00;;
12271;SDS011;6198;51.446;6.698;2023-08-06T13:24:13;4.43;;;3.63;;
12271;SDS011;6198;51.446;6.698;2023-08-06T13:26:39;3.33;;;3.03;;
12271;SDS011;6198;51.446;6.698;2023-08-06T13:29:05;5.50;;;3.80;;
12271;SDS011;6198;51.446;6.698;2023-08-06T13:31:32;3.73;;;3.33;;
12271;SDS011;6198;51.446;6.698;2023-08-06T13:33:58;5.70;;;3.30;;
12271;SDS011;6198;51.446;6.698;2023-08-06T13:36:27;3.97;;;3.40;;
12271;SDS011;6198;51.446;6.698;2023-08-06T13:38:53;3.37;;;3.07;;
12271;SDS011;6198;51.446;6.698;2023-08-06T13:41:19;7.30;;;4.80;;
12271;SDS011;6198;51.446;6.698;2023-08-06T13:43:46;5.07;;;3.33;;
12271;SDS011;6198;51.446;6.698;2023-08-06T13:46:12;4.40;;;2.73;;
12271;SDS011;6198;51.446;6.698;2023-08-06T13:48:43;3.40;;;2.80;;
12271;SDS011;6198;51.446;6.698;2023-08-06T13:51:09;4.43;;;2.90;;
12271;SDS011;6198;51.446;6.698;2023-08-06T13:53:36;3.57;;;2.60;;
12271;SDS011;6198;51.446;6.698;2023-08-06T13:56:02;3.90;;;3.10;;
12271;SDS011;6198;51.446;6.698;2023-08-06T13:58:28;4.20;;;2.70;;
12271;SDS011;6198;51.446;6.698;2023-08-06T14:00:54;3.50;;;2.50;;
12271;SDS011;6198;51.446;6.698;2023-08-06T14:03:20;3.07;;;2.63;;
12271;SDS011;6198;51.446;6.698;2023-08-06T14:10:39;4.25;;;2.90;;
12271;SDS011;6198;51.446;6.698;2023-08-06T14:13:05;3.30;;;2.53;;
12271;SDS011;6198;51.446;6.698;2023-08-06T14:15:30;3.08;;;2.40;;
12271;SDS011;6198;51.446;6.698;2023-08-06T14:17:58;3.20;;;2.50;;
12271;SDS011;6198;51.446;6.698;2023-08-06T14:20:24;4.68;;;3.60;;
12271;SDS011;6198;51.446;6.698;2023-08-06T14:22:50;3.92;;;2.78;;
12271;SDS011;6198;51.446;6.698;2023-08-06T14:25:16;3.33;;;2.60;;
12271;SDS011;6198;51.446;6.698;2023-08-06T14:27:41;3.88;;;2.70;;
12271;SDS011;6198;51.446;6.698;2023-08-06T14:30:08;2.80;;;2.35;;
12271;SDS011;6198;51.446;6.698;2023-08-06T14:32:34;4.32;;;3.83;;
12271;SDS011;6198;51.446;6.698;2023-08-06T14:35:00;4.15;;;3.30;;
12271;SDS011;6198;51.446;6.698;2023-08-06T14:37:25;6.00;;;5.35;;
12271;SDS011;6198;51.446;6.698;2023-08-06T14:39:51;18.95;;;16.33;;
12271;SDS011;6198;51.446;6.698;2023-08-06T14:42:17;9.30;;;8.25;;
12271;SDS011;6198;51.446;6.698;2023-08-06T14:44:43;7.37;;;4.97;;
12271;SDS011;6198;51.446;6.698;2023-08-06T14:47:09;21.73;;;15.83;;
12271;SDS011;6198;51.446;6.698;2023-08-06T14:49:35;8.00;;;4.10;;
12271;SDS011;6198;51.446;6.698;2023-08-06T14:52:02;11.37;;;10.17;;
12271;SDS011;6198;51.446;6.698;2023-08-06T14:54:28;2.93;;;2.63;;
12271;SDS011;6198;51.446;6.698;2023-08-06T14:56:54;4.60;;;3.53;;
12271;SDS011;6198;51.446;6.698;2023-08-06T14:59:20;3.20;;;2.90;;
12271;SDS011;6198;51.446;6.698;2023-08-06T15:01:46;3.80;;;3.03;;
12271;SDS011;6198;51.446;6.698;2023-08-06T15:04:12;2.93;;;2.47;;
12271;SDS011;6198;51.446;6.698;2023-08-06T15:06:38;6.73;;;5.87;;
12271;SDS011;6198;51.446;6.698;2023-08-06T15:09:04;3.10;;;2.50;;
12271;SDS011;6198;51.446;6.698;2023-08-06T15:11:30;3.10;;;2.20;;
12271;SDS011;6198;51.446;6.698;2023-08-06T15:13:56;3.13;;;2.47;;
12271;SDS011;6198;51.446;6.698;2023-08-06T15:16:23;3.27;;;2.43;;
12271;SDS011;6198;51.446;6.698;2023-08-06T15:18:49;3.07;;;2.37;;
12271;SDS011;6198;51.446;6.698;2023-08-06T15:21:15;4.80;;;3.63;;